Terminal Aerodrome Forecast
Issued by NWS

Home | Current Version | Previous Version | Text Only | Print | Product List | Glossary On
Versions: 1 2 3 4 5 6 7 8 9 10 11 12 13
000
FTUS42 TJSJ 181100
TAFJPS
TAF
TJPS 181133Z 1812/1912 06003KT P6SM FEW025 SCT060
     FM181600 17009KT P6SM VCSH FEW030 SCT050
     FM182330 06003KT P6SM FEW030 SCT060
      AMD NOT SKED TIL 190300=

USA.gov is the U.S. government's official web portal to all federal, state and local government web resources and services.